createdAt,value
2022-12-27T00:02:21.964Z,102281.00
2022-12-27T00:04:48.917Z,102271.00
2022-12-27T00:07:15.560Z,102278.00
2022-12-27T00:09:42.255Z,102278.00
2022-12-27T00:12:09.260Z,102279.00
2022-12-27T00:14:35.880Z,102283.00
2022-12-27T00:17:02.607Z,102282.00
2022-12-27T00:19:29.214Z,102276.00
2022-12-27T00:21:55.829Z,102268.00
2022-12-27T00:24:22.470Z,102275.00
2022-12-27T00:26:49.157Z,102272.00
2022-12-27T00:29:15.777Z,102283.00
2022-12-27T00:31:42.448Z,102284.00
2022-12-27T00:34:09.225Z,102284.00
2022-12-27T00:36:35.874Z,102283.00
2022-12-27T00:39:02.784Z,102292.00
2022-12-27T00:41:29.468Z,102286.00
2022-12-27T00:43:56.273Z,102278.00
2022-12-27T00:46:23.029Z,102284.00
2022-12-27T00:48:49.760Z,102286.00
2022-12-27T00:51:19.312Z,102293.00
2022-12-27T00:53:46.681Z,102292.00
2022-12-27T00:56:20.128Z,102293.00
2022-12-27T00:58:46.962Z,102294.00
2022-12-27T01:01:22.293Z,102299.00
2022-12-27T01:03:49.070Z,102309.00
2022-12-27T01:06:19.436Z,102321.00
2022-12-27T01:08:47.357Z,102325.00
2022-12-27T01:11:15.583Z,102329.00
2022-12-27T01:13:44.433Z,102342.00
2022-12-27T01:16:14.280Z,102339.00
2022-12-27T01:18:41.046Z,102345.00
2022-12-27T01:21:09.428Z,102344.00
2022-12-27T01:23:36.295Z,102349.00
2022-12-27T01:26:05.313Z,102344.00
2022-12-27T01:28:31.969Z,102343.00
2022-12-27T01:30:58.589Z,102344.00
2022-12-27T01:33:25.206Z,102350.00
2022-12-27T01:35:51.810Z,102350.00
2022-12-27T01:38:18.451Z,102350.00
2022-12-27T01:40:45.056Z,102351.00
2022-12-27T01:43:17.799Z,102342.00
2022-12-27T01:45:46.532Z,102349.00
2022-12-27T01:48:17.934Z,102346.00
2022-12-27T01:50:49.624Z,102338.00
2022-12-27T01:53:25.759Z,102332.00
2022-12-27T01:56:06.359Z,102333.00
2022-12-27T01:58:49.237Z,102346.00
2022-12-27T02:01:34.095Z,102344.00
2022-12-27T02:04:07.925Z,102348.00
2022-12-27T02:06:37.204Z,102359.00
2022-12-27T02:09:14.745Z,102356.00
2022-12-27T02:11:55.127Z,102362.00
2022-12-27T02:14:28.360Z,102358.00
2022-12-27T02:17:00.307Z,102360.00
2022-12-27T02:19:42.179Z,102360.00
2022-12-27T02:22:20.707Z,102360.00
2022-12-27T02:25:03.299Z,102362.00
2022-12-27T02:28:14.038Z,102366.00
2022-12-27T02:30:43.909Z,102365.00
2022-12-27T02:33:20.861Z,102370.00
2022-12-27T02:35:55.242Z,102371.00
2022-12-27T02:38:27.245Z,102381.00
2022-12-27T02:41:14.233Z,102385.00
2022-12-27T02:43:59.644Z,102385.00
2022-12-27T02:46:48.131Z,102387.00
2022-12-27T02:49:49.792Z,102383.00
2022-12-27T02:53:05.979Z,102387.00
2022-12-27T02:56:16.848Z,102371.00
2022-12-27T02:58:52.466Z,102370.00
2022-12-27T03:02:05.898Z,102366.00
2022-12-27T03:04:50.580Z,102374.00
2022-12-27T03:07:20.154Z,102382.00
2022-12-27T03:10:36.997Z,102391.00
2022-12-27T03:13:37.543Z,102390.00
2022-12-27T03:16:10.010Z,102384.00
2022-12-27T03:18:54.817Z,102383.00
2022-12-27T03:21:51.352Z,102377.00
2022-12-27T03:24:40.722Z,102375.00
2022-12-27T03:27:18.414Z,102381.00
2022-12-27T03:30:13.798Z,102389.00
2022-12-27T03:33:09.071Z,102393.00
2022-12-27T03:35:41.767Z,102397.00
2022-12-27T03:38:12.608Z,102401.00
2022-12-27T03:41:09.467Z,102404.00
2022-12-27T03:43:38.231Z,102406.00
2022-12-27T03:46:28.645Z,102406.00
2022-12-27T03:49:22.029Z,102406.00
2022-12-27T03:51:51.324Z,102409.00
2022-12-27T03:54:26.677Z,102404.00
2022-12-27T03:56:59.122Z,102412.00
2022-12-27T03:59:25.944Z,102412.00
2022-12-27T04:01:52.842Z,102428.00
2022-12-27T04:04:19.571Z,102418.00
2022-12-27T04:06:46.178Z,102416.00
2022-12-27T04:09:31.702Z,102423.00
2022-12-27T04:12:17.219Z,102423.00
2022-12-27T04:15:02.919Z,102425.00
2022-12-27T04:17:48.238Z,102427.00
2022-12-27T04:20:33.506Z,102421.00
2022-12-27T04:23:18.884Z,102418.00
2022-12-27T04:26:04.317Z,102423.00
2022-12-27T04:28:49.624Z,102422.00
2022-12-27T04:31:35.025Z,102416.00
2022-12-27T04:34:20.142Z,102420.00
2022-12-27T04:36:47.127Z,102420.00
2022-12-27T04:39:14.765Z,102421.00
2022-12-27T04:41:59.855Z,102413.00
2022-12-27T04:44:45.274Z,102418.00
2022-12-27T04:47:35.752Z,102422.00
2022-12-27T04:50:21.573Z,102417.00
2022-12-27T04:53:07.152Z,102417.00
2022-12-27T04:55:33.799Z,102425.00
2022-12-27T04:58:00.446Z,102421.00
2022-12-27T05:00:48.850Z,102423.00
2022-12-27T05:03:18.999Z,102420.00
2022-12-27T05:05:46.544Z,102429.00
2022-12-27T05:08:33.494Z,102422.00
2022-12-27T05:11:19.256Z,102418.00
2022-12-27T05:14:01.067Z,102424.00
2022-12-27T05:16:28.463Z,102427.00
2022-12-27T05:18:55.168Z,102425.00
2022-12-27T05:21:21.877Z,102424.00
2022-12-27T05:24:07.208Z,102423.00
2022-12-27T05:26:34.796Z,102426.00
2022-12-27T05:29:02.005Z,102424.00
2022-12-27T05:31:29.706Z,102423.00
2022-12-27T05:33:57.122Z,102426.00
2022-12-27T05:36:24.405Z,102432.00
2022-12-27T05:38:51.968Z,102443.00
2022-12-27T05:41:18.887Z,102439.00
2022-12-27T05:43:45.777Z,102443.00
2022-12-27T05:46:15.085Z,102437.00
2022-12-27T05:48:42.380Z,102434.00
2022-12-27T05:51:12.397Z,102437.00
2022-12-27T05:53:39.557Z,102445.00
2022-12-27T05:56:06.864Z,102449.00
2022-12-27T05:58:34.031Z,102437.00
2022-12-27T06:01:01.400Z,102436.00
2022-12-27T06:03:28.160Z,102432.00
2022-12-27T06:06:01.347Z,102430.00
2022-12-27T06:08:28.691Z,102431.00
2022-12-27T06:11:10.553Z,102445.00
2022-12-27T06:13:38.467Z,102439.00
2022-12-27T06:16:06.909Z,102435.00
2022-12-27T06:18:35.706Z,102437.00
2022-12-27T06:21:08.223Z,102432.00
2022-12-27T06:23:37.040Z,102444.00
2022-12-27T06:26:12.968Z,102448.00
2022-12-27T06:28:39.597Z,102443.00
2022-12-27T06:31:06.346Z,102452.00
2022-12-27T06:33:34.305Z,102460.00
2022-12-27T06:36:07.057Z,102463.00
2022-12-27T06:38:33.663Z,102454.00
2022-12-27T06:41:09.021Z,102451.00
2022-12-27T06:43:36.232Z,102452.00
2022-12-27T06:46:05.110Z,102456.00
2022-12-27T06:48:31.816Z,102447.00
2022-12-27T06:50:59.003Z,102449.00
2022-12-27T06:53:25.604Z,102448.00
2022-12-27T06:55:52.206Z,102452.00
2022-12-27T06:58:19.063Z,102449.00
2022-12-27T07:00:45.709Z,102447.00
2022-12-27T07:03:12.334Z,102439.00
2022-12-27T07:05:39.290Z,102444.00
2022-12-27T07:08:06.240Z,102439.00
2022-12-27T07:10:32.833Z,102446.00
2022-12-27T07:12:59.476Z,102440.00
2022-12-27T07:15:26.131Z,102446.00
2022-12-27T07:17:52.744Z,102446.00
2022-12-27T07:20:19.400Z,102454.00
2022-12-27T07:22:46.164Z,102446.00
2022-12-27T07:25:12.845Z,102447.00
2022-12-27T07:27:39.468Z,102450.00
2022-12-27T07:30:06.709Z,102454.00
2022-12-27T07:32:33.355Z,102452.00
2022-12-27T07:35:00.041Z,102444.00
2022-12-27T07:37:26.700Z,102443.00
2022-12-27T07:39:53.352Z,102442.00
2022-12-27T07:42:20.018Z,102434.00
2022-12-27T07:44:46.611Z,102436.00
2022-12-27T07:47:13.366Z,102433.00
2022-12-27T07:49:39.983Z,102434.00
2022-12-27T07:52:06.616Z,102436.00
2022-12-27T07:54:33.283Z,102442.00
2022-12-27T07:56:59.992Z,102436.00
2022-12-27T07:59:27.552Z,102445.00
2022-12-27T08:02:06.484Z,102447.00
2022-12-27T08:04:37.100Z,102433.00
2022-12-27T08:07:13.231Z,102436.00
2022-12-27T08:09:41.381Z,102447.00
2022-12-27T08:12:08.867Z,102440.00
2022-12-27T08:14:35.729Z,102438.00
2022-12-27T08:17:16.499Z,102446.00
2022-12-27T08:19:43.134Z,102444.00
2022-12-27T08:22:10.968Z,102440.00
2022-12-27T08:24:38.485Z,102441.00
2022-12-27T08:27:05.204Z,102447.00
2022-12-27T08:29:32.118Z,102435.00
2022-12-27T08:31:59.000Z,102432.00
2022-12-27T08:34:25.574Z,102435.00
2022-12-27T08:36:55.696Z,102441.00
2022-12-27T08:39:22.960Z,102442.00
2022-12-27T08:41:49.829Z,102450.00
2022-12-27T08:44:16.446Z,102457.00
2022-12-27T08:46:43.228Z,102449.00
2022-12-27T08:49:09.870Z,102446.00
2022-12-27T08:51:41.152Z,102443.00
2022-12-27T08:54:08.695Z,102445.00
2022-12-27T08:56:35.365Z,102448.00
2022-12-27T08:59:02.327Z,102446.00
2022-12-27T09:01:29.251Z,102447.00
2022-12-27T09:03:56.001Z,102449.00
2022-12-27T09:06:24.268Z,102453.00
2022-12-27T09:08:51.919Z,102453.00
2022-12-27T09:11:22.831Z,102448.00
2022-12-27T09:13:50.282Z,102440.00
2022-12-27T09:16:20.290Z,102443.00
2022-12-27T09:18:52.593Z,102446.00
2022-12-27T09:21:20.846Z,102450.00
2022-12-27T09:23:48.703Z,102442.00
2022-12-27T09:26:18.319Z,102448.00
2022-12-27T09:28:45.390Z,102464.00
2022-12-27T09:31:13.287Z,102458.00
2022-12-27T09:33:40.781Z,102454.00
2022-12-27T09:36:16.334Z,102464.00
2022-12-27T09:38:43.387Z,102454.00
2022-12-27T09:41:58.981Z,102450.00
2022-12-27T09:44:12.611Z,102460.00
2022-12-27T09:46:55.442Z,102463.00
2022-12-27T09:49:50.901Z,102464.00
2022-12-27T09:52:26.677Z,102456.00
2022-12-27T09:55:17.759Z,102469.00
2022-12-27T09:57:46.709Z,102464.00
2022-12-27T10:00:17.860Z,102462.00
2022-12-27T10:02:45.229Z,102465.00
2022-12-27T10:05:22.062Z,102477.00
2022-12-27T10:08:07.309Z,102481.00
2022-12-27T10:10:41.078Z,102485.00
2022-12-27T10:13:29.274Z,102490.00
2022-12-27T10:16:21.087Z,102491.00
2022-12-27T10:19:15.946Z,102482.00
2022-12-27T10:22:16.882Z,102480.00
2022-12-27T10:24:52.553Z,102482.00
2022-12-27T10:27:24.515Z,102476.00
2022-12-27T10:29:57.147Z,102469.00
2022-12-27T10:32:24.021Z,102474.00
2022-12-27T10:35:02.861Z,102474.00
2022-12-27T10:37:29.747Z,102467.00
2022-12-27T10:40:05.594Z,102455.00
2022-12-27T10:42:41.937Z,102453.00
2022-12-27T10:45:33.413Z,102460.00
2022-12-27T10:48:16.574Z,102451.00
2022-12-27T10:50:50.262Z,102445.00
2022-12-27T10:53:49.265Z,102458.00
2022-12-27T10:56:15.894Z,102453.00
2022-12-27T10:58:45.483Z,102447.00
2022-12-27T11:01:16.945Z,102448.00
2022-12-27T11:03:43.770Z,102450.00
2022-12-27T11:06:26.103Z,102453.00
2022-12-27T11:08:54.128Z,102445.00
2022-12-27T11:11:22.741Z,102435.00
2022-12-27T11:13:50.741Z,102433.00
2022-12-27T11:16:29.919Z,102432.00
2022-12-27T11:18:58.683Z,102431.00
2022-12-27T11:21:28.156Z,102432.00
2022-12-27T11:24:04.447Z,102434.00
2022-12-27T11:26:39.865Z,102423.00
2022-12-27T11:29:06.691Z,102422.00
2022-12-27T11:31:46.499Z,102415.00
2022-12-27T11:34:43.335Z,102423.00
2022-12-27T11:37:17.690Z,102417.00
2022-12-27T11:39:53.336Z,102413.00
2022-12-27T11:42:38.597Z,102412.00
2022-12-27T11:45:14.163Z,102407.00
2022-12-27T11:48:04.069Z,102405.00
2022-12-27T11:50:55.482Z,102403.00
2022-12-27T11:53:40.483Z,102401.00
2022-12-27T11:56:19.502Z,102402.00
2022-12-27T11:58:58.325Z,102407.00
2022-12-27T12:01:49.912Z,102403.00
2022-12-27T12:04:46.712Z,102396.00
2022-12-27T12:07:16.365Z,102395.00
2022-12-27T12:09:55.426Z,102395.00
2022-12-27T12:12:57.260Z,102393.00
2022-12-27T12:15:54.548Z,102382.00
2022-12-27T12:18:39.521Z,102370.00
2022-12-27T12:21:26.918Z,102360.00
2022-12-27T12:24:25.304Z,102352.00
2022-12-27T12:27:03.753Z,102345.00
2022-12-27T12:29:55.143Z,102345.00
2022-12-27T12:32:36.812Z,102347.00
2022-12-27T12:35:19.514Z,102345.00
2022-12-27T12:38:03.507Z,102334.00
2022-12-27T12:40:44.147Z,102317.00
2022-12-27T12:43:48.086Z,102327.00
2022-12-27T12:46:32.339Z,102314.00
2022-12-27T12:49:10.265Z,102302.00
2022-12-27T12:52:12.347Z,102310.00
2022-12-27T12:54:56.918Z,102308.00
2022-12-27T12:57:42.269Z,102296.00
2022-12-27T13:00:21.131Z,102303.00
2022-12-27T13:03:33.299Z,102298.00
2022-12-27T13:06:20.236Z,102292.00
2022-12-27T13:09:05.557Z,102283.00
2022-12-27T13:11:54.002Z,102279.00
2022-12-27T13:14:29.357Z,102286.00
2022-12-27T13:17:33.450Z,102269.00
2022-12-27T13:20:35.148Z,102274.00
2022-12-27T13:23:26.607Z,102274.00
2022-12-27T13:25:53.088Z,102272.00
2022-12-27T13:28:27.309Z,102265.00
2022-12-27T13:31:05.607Z,102259.00
2022-12-27T13:33:37.594Z,102255.00
2022-12-27T13:36:31.311Z,102248.00
2022-12-27T13:39:24.453Z,102256.00
2022-12-27T13:42:29.697Z,102248.00
2022-12-27T13:45:52.005Z,102244.00
2022-12-27T13:48:24.324Z,102237.00
2022-12-27T13:51:02.765Z,102239.00
2022-12-27T13:53:55.479Z,102233.00
2022-12-27T13:59:24.987Z,102222.00
2022-12-27T14:02:12.331Z,102217.00
2022-12-27T14:04:59.730Z,102212.00
2022-12-27T14:07:44.996Z,102204.00
2022-12-27T14:10:37.916Z,102191.00
2022-12-27T14:13:09.012Z,102191.00
2022-12-27T14:15:53.823Z,102190.00
2022-12-27T14:18:32.368Z,102184.00
2022-12-27T14:21:02.008Z,102175.00
2022-12-27T14:23:59.117Z,102172.00
2022-12-27T14:26:28.996Z,102174.00
2022-12-27T14:29:26.511Z,102179.00
2022-12-27T14:32:18.048Z,102184.00
2022-12-27T14:35:23.517Z,102187.00
2022-12-27T14:38:27.687Z,102184.00
2022-12-27T14:41:42.099Z,102172.00
2022-12-27T14:44:27.195Z,102172.00
2022-12-27T14:47:23.464Z,102170.00
2022-12-27T14:50:15.231Z,102154.00
2022-12-27T14:53:10.953Z,102170.00
2022-12-27T14:55:56.674Z,102164.00
2022-12-27T14:58:29.214Z,102164.00
2022-12-27T15:01:17.546Z,102157.00
2022-12-27T15:04:06.467Z,102166.00
2022-12-27T15:06:51.375Z,102166.00
2022-12-27T15:09:51.939Z,102155.00
2022-12-27T15:12:45.939Z,102153.00
2022-12-27T15:15:24.521Z,102143.00
2022-12-27T15:18:33.185Z,102138.00
2022-12-27T15:21:41.316Z,102146.00
2022-12-27T15:24:36.639Z,102135.00
2022-12-27T15:27:41.723Z,102149.00
2022-12-27T15:30:20.378Z,102137.00
2022-12-27T15:32:58.932Z,102149.00
2022-12-27T15:35:28.237Z,102145.00
2022-12-27T15:38:04.250Z,102144.00
2022-12-27T15:40:33.840Z,102145.00
2022-12-27T15:43:22.339Z,102139.00
2022-12-27T15:46:07.068Z,102141.00
2022-12-27T15:48:54.697Z,102146.00
2022-12-27T15:51:45.606Z,102140.00
2022-12-27T15:54:30.792Z,102136.00
2022-12-27T15:57:12.293Z,102137.00
2022-12-27T15:59:52.939Z,102138.00
2022-12-27T16:02:24.824Z,102139.00
2022-12-27T16:05:00.712Z,102149.00
2022-12-27T16:07:39.421Z,102147.00
2022-12-27T16:10:24.366Z,102144.00
2022-12-27T16:12:51.203Z,102142.00
2022-12-27T16:15:37.644Z,102138.00
2022-12-27T16:18:05.207Z,102134.00
2022-12-27T16:20:33.261Z,102132.00
2022-12-27T16:23:03.162Z,102122.00
2022-12-27T16:25:35.368Z,102118.00
2022-12-27T16:28:20.408Z,102113.00
2022-12-27T16:30:57.870Z,102114.00
2022-12-27T16:33:27.496Z,102108.00
2022-12-27T16:36:14.382Z,102108.00
2022-12-27T16:39:02.222Z,102100.00
2022-12-27T16:41:50.139Z,102100.00
2022-12-27T16:44:25.833Z,102103.00
2022-12-27T16:47:25.638Z,102099.00
2022-12-27T16:50:06.541Z,102100.00
2022-12-27T16:52:53.077Z,102091.00
2022-12-27T16:55:40.952Z,102095.00
2022-12-27T16:58:23.484Z,102093.00
2022-12-27T17:00:58.078Z,102089.00
2022-12-27T17:03:37.139Z,102078.00
2022-12-27T17:06:38.994Z,102084.00
2022-12-27T17:09:08.369Z,102084.00
2022-12-27T17:11:39.168Z,102086.00
2022-12-27T17:14:26.467Z,102071.00
2022-12-27T17:17:02.742Z,102073.00
2022-12-27T17:19:45.829Z,102064.00
2022-12-27T17:22:15.441Z,102069.00
2022-12-27T17:24:45.224Z,102061.00
2022-12-27T17:27:11.820Z,102062.00
2022-12-27T17:30:23.602Z,102071.00
2022-12-27T17:33:00.020Z,102065.00
2022-12-27T17:35:41.867Z,102055.00
2022-12-27T17:38:37.084Z,102054.00
2022-12-27T17:41:57.577Z,102053.00
2022-12-27T17:44:47.181Z,102052.00
2022-12-27T17:47:50.995Z,102043.00
2022-12-27T17:50:24.212Z,102027.00
2022-12-27T17:53:27.945Z,102037.00
2022-12-27T17:56:40.186Z,102026.00
2022-12-27T17:59:36.040Z,102022.00
2022-12-27T18:02:14.692Z,102017.00
2022-12-27T18:04:48.637Z,102015.00
2022-12-27T18:07:21.884Z,102013.00
2022-12-27T18:09:51.818Z,101998.00
2022-12-27T18:12:30.766Z,102007.00
2022-12-27T18:15:05.646Z,101992.00
2022-12-27T18:17:42.880Z,101994.00
2022-12-27T18:20:28.130Z,101993.00
2022-12-27T18:23:00.603Z,101986.00
2022-12-27T18:25:30.245Z,101984.00
2022-12-27T18:28:02.209Z,101972.00
2022-12-27T18:30:35.621Z,101964.00
2022-12-27T18:33:03.727Z,101971.00
2022-12-27T18:35:31.283Z,101960.00
2022-12-27T18:37:57.977Z,101956.00
2022-12-27T18:40:26.224Z,101953.00
2022-12-27T18:42:53.665Z,101953.00
2022-12-27T18:45:26.979Z,101953.00
2022-12-27T18:47:56.651Z,101948.00
2022-12-27T18:50:26.510Z,101950.00
2022-12-27T18:53:03.366Z,101938.00
2022-12-27T18:55:32.146Z,101928.00
2022-12-27T18:58:19.883Z,101932.00
2022-12-27T19:00:54.921Z,101933.00
2022-12-27T19:03:21.748Z,101929.00
2022-12-27T19:06:02.009Z,101919.00
2022-12-27T19:08:51.380Z,101917.00
2022-12-27T19:11:25.670Z,101916.00
2022-12-27T19:13:58.369Z,101912.00
2022-12-27T19:16:31.719Z,101914.00
2022-12-27T19:19:16.438Z,101912.00
2022-12-27T19:21:43.049Z,101907.00
2022-12-27T19:24:32.465Z,101905.00
2022-12-27T19:27:02.271Z,101897.00
2022-12-27T19:29:32.651Z,101879.00
2022-12-27T19:32:05.749Z,101894.00
2022-12-27T19:34:48.855Z,101871.00
2022-12-27T19:37:15.588Z,101870.00
2022-12-27T19:39:45.624Z,101870.00
2022-12-27T19:42:16.957Z,101858.00
2022-12-27T19:44:43.530Z,101865.00
2022-12-27T19:47:13.645Z,101852.00
2022-12-27T19:49:42.217Z,101869.00
2022-12-27T19:52:17.974Z,101862.00
2022-12-27T19:54:45.421Z,101873.00
2022-12-27T19:57:12.741Z,101872.00
2022-12-27T19:59:40.032Z,101857.00
2022-12-27T20:02:07.243Z,101853.00
2022-12-27T20:04:34.177Z,101855.00
2022-12-27T20:07:01.617Z,101858.00
2022-12-27T20:09:28.392Z,101848.00
2022-12-27T20:11:55.009Z,101837.00
2022-12-27T20:14:21.859Z,101852.00
2022-12-27T20:16:48.679Z,101836.00
2022-12-27T20:19:18.095Z,101827.00
2022-12-27T20:21:45.145Z,101829.00
2022-12-27T20:24:12.895Z,101822.00
2022-12-27T20:26:40.406Z,101818.00
2022-12-27T20:29:07.455Z,101832.00
2022-12-27T20:31:37.560Z,101830.00
2022-12-27T20:34:11.075Z,101823.00
2022-12-27T20:36:37.792Z,101809.00
2022-12-27T20:39:04.841Z,101819.00
2022-12-27T20:41:31.452Z,101823.00
2022-12-27T20:43:58.613Z,101806.00
2022-12-27T20:46:25.881Z,101808.00
2022-12-27T20:48:54.319Z,101805.00
2022-12-27T20:51:23.916Z,101799.00
2022-12-27T20:53:58.236Z,101789.00
2022-12-27T20:56:25.172Z,101784.00
2022-12-27T20:58:52.155Z,101787.00
2022-12-27T21:01:24.580Z,101768.00
2022-12-27T21:03:51.408Z,101777.00
2022-12-27T21:06:20.963Z,101767.00
2022-12-27T21:08:56.768Z,101776.00
2022-12-27T21:11:31.281Z,101768.00
2022-12-27T21:14:00.332Z,101763.00
2022-12-27T21:16:29.105Z,101757.00
2022-12-27T21:18:56.695Z,101751.00
2022-12-27T21:21:28.247Z,101750.00
2022-12-27T21:23:57.014Z,101742.00
2022-12-27T21:26:29.394Z,101743.00
2022-12-27T21:28:57.291Z,101730.00
2022-12-27T21:31:24.847Z,101720.00
2022-12-27T21:33:51.805Z,101719.00
2022-12-27T21:36:24.746Z,101711.00
2022-12-27T21:38:52.428Z,101710.00
2022-12-27T21:41:24.498Z,101698.00
2022-12-27T21:43:51.694Z,101691.00
2022-12-27T21:46:23.689Z,101687.00
2022-12-27T21:48:56.177Z,101690.00
2022-12-27T21:51:23.324Z,101697.00
2022-12-27T21:53:50.143Z,101687.00
2022-12-27T21:56:17.443Z,101682.00
2022-12-27T21:58:44.874Z,101690.00
2022-12-27T22:01:12.605Z,101682.00
2022-12-27T22:03:42.212Z,101659.00
2022-12-27T22:06:22.789Z,101653.00
2022-12-27T22:08:51.616Z,101674.00
2022-12-27T22:11:19.756Z,101667.00
2022-12-27T22:13:46.966Z,101657.00
2022-12-27T22:16:17.167Z,101629.00
2022-12-27T22:18:45.159Z,101639.00
2022-12-27T22:21:14.838Z,101631.00
2022-12-27T22:23:44.406Z,101635.00
2022-12-27T22:26:13.290Z,101627.00
2022-12-27T22:28:40.902Z,101625.00
2022-12-27T22:31:12.786Z,101620.00
2022-12-27T22:33:39.627Z,101617.00
2022-12-27T22:36:11.361Z,101602.00
2022-12-27T22:38:38.320Z,101593.00
2022-12-27T22:41:19.583Z,101584.00
2022-12-27T22:43:51.618Z,101568.00
2022-12-27T22:46:18.964Z,101565.00
2022-12-27T22:48:50.577Z,101555.00
2022-12-27T22:51:22.284Z,101553.00
2022-12-27T22:53:49.738Z,101537.00
2022-12-27T22:56:19.254Z,101532.00
2022-12-27T22:58:45.934Z,101533.00
2022-12-27T23:01:15.042Z,101522.00
2022-12-27T23:03:42.115Z,101526.00
2022-12-27T23:06:10.882Z,101527.00
2022-12-27T23:08:38.327Z,101519.00
2022-12-27T23:11:14.030Z,101520.00
2022-12-27T23:13:40.708Z,101513.00
2022-12-27T23:16:07.964Z,101508.00
2022-12-27T23:18:36.715Z,101500.00
2022-12-27T23:21:21.092Z,101493.00
2022-12-27T23:23:51.020Z,101507.00
2022-12-27T23:26:20.658Z,101492.00
2022-12-27T23:28:48.188Z,101489.00
2022-12-27T23:31:15.759Z,101481.00
2022-12-27T23:33:43.666Z,101478.00
2022-12-27T23:36:11.476Z,101492.00
2022-12-27T23:38:38.190Z,101477.00
2022-12-27T23:41:07.284Z,101473.00
2022-12-27T23:43:54.585Z,101475.00
2022-12-27T23:46:28.252Z,101473.00
2022-12-27T23:48:56.716Z,101467.00
2022-12-27T23:51:23.742Z,101465.00
2022-12-27T23:53:50.741Z,101466.00
2022-12-27T23:56:20.502Z,101443.00
2022-12-27T23:58:48.081Z,101438.00
